Time;durP1;ratioP1;P1;durP2;ratioP2;P2;SDS_P1;SDS_P2;PMS_P1;PMS_P2;Temp;Humidity;BMP_temperature;BMP_pressure;BME280_temperature;BME280_humidity;BME280_pressure;Samples;Min_cycle;Max_cycle;Signal;HPM_P1;HPM_P2
2022/11/12 00:00:29;;;;;;;;;;;16.60;95.70;;;;;;5096709;28;19974;-66
2022/11/12 00:02:55;;;;;;;;;;;16.80;95.70;;;;;;5096196;28;19978;-66
2022/11/12 00:05:20;;;;;;;;;;;16.50;95.60;;;;;;5112453;28;19968;-66
2022/11/12 00:07:46;;;;;;;;;;;16.30;95.60;;;;;;5115500;28;19924;-66
2022/11/12 00:10:11;;;;;;;;;;;16.70;95.60;;;;;;5093975;28;19969;-68
2022/11/12 00:12:37;;;;;;;;;;;16.80;95.70;;;;;;5115476;28;19927;-68
2022/11/12 00:15:03;;;;;;;;;;;16.80;95.60;;;;;;5113717;28;20385;-69
2022/11/12 00:17:28;;;;;;;;;;;16.50;95.50;;;;;;5096037;28;19983;-69
2022/11/12 00:19:54;;;;;;;;;;;16.80;95.60;;;;;;5113130;28;19950;-68
2022/11/12 00:22:20;;;;;;;;;;;16.80;95.60;;;;;;5113825;28;20011;-69
2022/11/12 00:24:46;;;;;;;;;;;16.70;95.50;;;;;;5112880;28;19989;-70
2022/11/12 00:27:11;;;;;;;;;;;16.40;95.50;;;;;;5115694;28;19923;-69
2022/11/12 00:29:37;;;;;;;;;;;16.70;95.60;;;;;;5113821;28;19920;-70
2022/11/12 00:32:04;;;;;;;;;;;16.90;95.60;;;;;;5114624;28;19937;-67
2022/11/12 00:34:30;;;;;;;;;;;16.70;95.50;;;;;;5112515;28;19928;-70
2022/11/12 00:36:56;;;;;;;;;;;;;;;;;;5096831;28;20270;-67
2022/11/12 00:39:21;;;;;;;;;;;16.60;95.50;;;;;;5113986;28;19924;-67
2022/11/12 00:41:47;;;;;;;;;;;16.60;95.40;;;;;;5109645;28;19928;-66
2022/11/12 00:44:13;;;;;;;;;;;16.80;95.50;;;;;;5104267;28;19923;-66
2022/11/12 00:46:38;;;;;;;;;;;16.60;95.50;;;;;;5114379;28;19924;-65
2022/11/12 00:49:04;;;;;;;;;;;16.40;95.40;;;;;;5115815;28;19924;-66
2022/11/12 00:51:30;;;;;;;;;;;16.80;95.40;;;;;;5095241;28;20365;-68
2022/11/12 00:53:55;;;;;;;;;;;16.80;95.40;;;;;;5112914;28;19931;-68
2022/11/12 00:56:21;;;;;;;;;;;16.60;95.40;;;;;;5113094;28;19923;-67
2022/11/12 00:58:47;;;;;;;;;;;16.60;95.30;;;;;;5114463;28;19985;-69
2022/11/12 01:01:13;;;;;;;;;;;16.60;95.30;;;;;;5113230;28;19927;-71
2022/11/12 01:03:39;;;;;;;;;;;16.50;95.30;;;;;;5095398;28;19930;-71
2022/11/12 01:06:12;;;;;;;;;;;16.80;95.40;;;;;;5096398;28;19924;-71
2022/11/12 01:08:38;;;;;;;;;;;16.50;95.30;;;;;;5112589;28;19928;-72
2022/11/12 01:11:15;;;;;;;;;;;16.60;95.30;;;;;;5113608;28;20288;-72
2022/11/12 01:13:42;;;;;;;;;;;16.70;95.30;;;;;;5113083;28;20288;-72
2022/11/12 01:16:12;;;;;;;;;;;16.60;95.30;;;;;;5113072;28;19932;-72
2022/11/12 01:18:37;;;;;;;;;;;16.40;95.20;;;;;;5112964;28;19935;-71
2022/11/12 01:21:03;;;;;;;;;;;16.70;95.20;;;;;;5079204;28;19924;-67
2022/11/12 01:23:30;;;;;;;;;;;16.50;95.10;;;;;;5112574;28;19973;-67
2022/11/12 01:25:56;;;;;;;;;;;16.60;95.10;;;;;;5112448;28;19967;-67
2022/11/12 01:28:22;;;;;;;;;;;16.40;95.10;;;;;;5108855;28;20012;-67
2022/11/12 01:30:47;;;;;;;;;;;16.50;95.10;;;;;;5094814;28;19932;-67
2022/11/12 01:33:13;;;;;;;;;;;16.70;95.10;;;;;;5111881;28;19924;-67
2022/11/12 01:35:39;;;;;;;;;;;16.40;95.00;;;;;;5112607;28;20326;-67
2022/11/12 01:38:04;;;;;;;;;;;16.50;95.00;;;;;;5112889;28;19930;-67
2022/11/12 01:40:31;;;;;;;;;;;16.50;95.00;;;;;;5095732;28;19924;-66
2022/11/12 01:42:56;;;;;;;;;;;16.60;95.00;;;;;;5112876;28;19924;-67
2022/11/12 01:45:22;;;;;;;;;;;16.40;95.00;;;;;;5113181;28;19924;-66
2022/11/12 01:47:48;;;;;;;;;;;16.30;94.90;;;;;;5112768;28;19969;-66
2022/11/12 01:50:15;;;;;;;;;;;16.40;94.90;;;;;;5094736;28;19928;-67
2022/11/12 01:52:45;;;;;;;;;;;16.50;94.90;;;;;;5113175;28;20333;-72
2022/11/12 01:55:12;;;;;;;;;;;16.60;94.90;;;;;;5112384;28;19924;-72
2022/11/12 01:57:45;;;;;;;;;;;16.60;94.90;;;;;;5112874;28;19927;-72
2022/11/12 02:00:10;;;;;;;;;;;16.40;94.90;;;;;;5075095;28;19931;-72
2022/11/12 02:02:36;;;;;;;;;;;16.60;94.90;;;;;;5093872;28;19924;-66
2022/11/12 02:05:03;;;;;;;;;;;16.70;94.90;;;;;;5111921;28;19946;-66
2022/11/12 02:07:29;;;;;;;;;;;16.40;94.90;;;;;;5117785;28;20018;-67
2022/11/12 02:09:55;;;;;;;;;;;16.60;95.00;;;;;;5116766;28;19996;-66
2022/11/12 02:15:05;;;;;;;;;;;16.40;94.90;;;;;;5115498;28;20047;-66
2022/11/12 02:17:31;;;;;;;;;;;16.60;94.90;;;;;;5117638;28;19931;-67
2022/11/12 02:19:58;;;;;;;;;;;16.50;94.90;;;;;;5099815;28;20277;-66
2022/11/12 02:22:23;;;;;;;;;;;16.40;94.90;;;;;;5117546;28;19931;-66
2022/11/12 02:24:49;;;;;;;;;;;16.60;94.90;;;;;;5116379;28;19924;-66
2022/11/12 02:27:14;;;;;;;;;;;16.40;94.90;;;;;;5116518;28;19935;-66
2022/11/12 02:29:45;;;;;;;;;;;16.50;94.90;;;;;;5117008;28;19932;-66
2022/11/12 02:32:13;;;;;;;;;;;16.20;94.80;;;;;;5117017;28;19923;-66
2022/11/12 02:34:39;;;;;;;;;;;16.50;94.80;;;;;;5116317;28;19969;-66
2022/11/12 02:37:05;;;;;;;;;;;16.50;94.80;;;;;;5115994;28;19924;-67
2022/11/12 02:39:31;;;;;;;;;;;16.20;94.80;;;;;;5116308;28;20006;-66
2022/11/12 02:41:56;;;;;;;;;;;16.60;94.90;;;;;;5082018;28;20452;-70
2022/11/12 02:44:22;;;;;;;;;;;16.50;94.80;;;;;;5114334;28;19927;-70
2022/11/12 02:46:48;;;;;;;;;;;16.60;94.80;;;;;;5115630;28;19931;-69
2022/11/12 02:49:13;;;;;;;;;;;16.60;95.00;;;;;;5117023;28;19924;-69
2022/11/12 02:51:39;;;;;;;;;;;16.30;94.70;;;;;;5117006;28;19923;-69
2022/11/12 02:54:04;;;;;;;;;;;16.20;94.70;;;;;;5116026;28;19923;-66
2022/11/12 02:56:30;;;;;;;;;;;16.40;94.80;;;;;;5117121;28;19931;-67
2022/11/12 02:58:56;;;;;;;;;;;16.30;94.80;;;;;;5115139;28;19924;-66
2022/11/12 03:01:21;;;;;;;;;;;16.40;94.70;;;;;;5097871;28;19924;-67
2022/11/12 03:03:47;;;;;;;;;;;16.50;94.70;;;;;;5115651;28;19927;-66
2022/11/12 03:06:13;;;;;;;;;;;16.40;94.70;;;;;;5116811;28;19924;-66
2022/11/12 03:08:38;;;;;;;;;;;16.30;94.70;;;;;;5115429;28;19920;-66
2022/11/12 03:11:05;;;;;;;;;;;16.30;94.70;;;;;;5115753;28;19988;-68
2022/11/12 03:13:31;;;;;;;;;;;;;;;;;;5115401;28;20338;-69
2022/11/12 03:15:59;;;;;;;;;;;16.50;94.70;;;;;;5115358;28;19928;-67
2022/11/12 03:18:25;;;;;;;;;;;16.20;94.60;;;;;;5080499;28;19924;-68
2022/11/12 03:20:51;;;;;;;;;;;16.50;94.70;;;;;;5115133;28;19931;-69
2022/11/12 03:23:16;;;;;;;;;;;16.40;94.80;;;;;;5116733;28;19977;-69
2022/11/12 03:25:42;;;;;;;;;;;16.60;94.80;;;;;;5115258;28;19924;-69
2022/11/12 03:28:08;;;;;;;;;;;16.60;94.80;;;;;;5114045;28;19925;-69
2022/11/12 03:30:35;;;;;;;;;;;16.30;94.70;;;;;;5116127;28;20015;-68
2022/11/12 03:33:00;;;;;;;;;;;16.40;94.80;;;;;;5117072;28;19968;-67
2022/11/12 03:35:26;;;;;;;;;;;16.50;94.80;;;;;;5113890;28;20448;-69
2022/11/12 03:37:52;;;;;;;;;;;16.40;94.70;;;;;;5112800;28;20010;-69
2022/11/12 03:40:18;;;;;;;;;;;16.30;94.70;;;;;;5093521;28;20064;-68
2022/11/12 03:42:47;;;;;;;;;;;16.30;94.70;;;;;;5077919;28;19924;-69
2022/11/12 03:45:13;;;;;;;;;;;16.10;94.60;;;;;;5114372;28;20018;-70
2022/11/12 03:47:45;;;;;;;;;;;16.30;94.60;;;;;;5116240;28;20021;-68
2022/11/12 03:50:11;;;;;;;;;;;16.00;94.50;;;;;;5116223;28;20400;-70
2022/11/12 03:52:37;;;;;;;;;;;16.30;94.60;;;;;;5114459;28;19935;-69
2022/11/12 03:55:04;;;;;;;;;;;16.40;94.60;;;;;;5097188;28;19923;-70
2022/11/12 03:57:29;;;;;;;;;;;16.50;94.60;;;;;;5095211;28;19928;-68
2022/11/12 03:59:55;;;;;;;;;;;16.20;94.50;;;;;;5113729;28;20011;-69
2022/11/12 04:02:21;;;;;;;;;;;16.20;94.60;;;;;;5114264;28;20014;-69
2022/11/12 04:10:15;;;;;;;;;;;16.40;94.50;;;;;;5115229;28;19923;-69
2022/11/12 04:15:24;;;;;;;;;;;16.30;94.40;;;;;;5113398;28;19969;-69
2022/11/12 04:23:18;;;;;;;;;;;16.30;94.50;;;;;;5114871;28;19924;-69
2022/11/12 04:28:28;;;;;;;;;;;16.20;94.50;;;;;;5114780;28;20018;-70
2022/11/12 04:30:54;;;;;;;;;;;16.20;94.40;;;;;;5114588;28;20018;-69
2022/11/12 04:33:19;;;;;;;;;;;16.30;94.50;;;;;;5114969;28;19924;-70
2022/11/12 04:35:45;;;;;;;;;;;16.30;94.50;;;;;;5098408;28;19924;-70
2022/11/12 04:38:11;;;;;;;;;;;16.30;94.40;;;;;;5113581;28;20393;-69
2022/11/12 04:46:06;;;;;;;;;;;16.20;94.40;;;;;;5112830;28;20015;-70
2022/11/12 04:48:31;;;;;;;;;;;16.00;94.20;;;;;;5112969;28;20010;-69
2022/11/12 04:52:03;;;;;;;;;;;16.30;94.30;;;;;;5112986;28;19928;-69
2022/11/12 04:53:52;;;;;;;;;;;16.00;94.20;;;;;;5113391;28;20415;-70
2022/11/12 04:56:17;;;;;;;;;;;16.10;94.20;;;;;;5096098;28;20022;-67
2022/11/12 04:58:43;;;;;;;;;;;16.20;94.20;;;;;;5114004;28;19931;-69
2022/11/12 05:01:08;;;;;;;;;;;16.20;94.20;;;;;;5113507;28;19923;-68
2022/11/12 05:03:34;;;;;;;;;;;16.40;94.30;;;;;;5114844;28;19931;-69
2022/11/12 05:06:03;;;;;;;;;;;16.30;94.20;;;;;;5094768;28;19923;-70
2022/11/12 05:08:28;;;;;;;;;;;16.30;94.10;;;;;;5112269;28;20018;-71
2022/11/12 05:10:54;;;;;;;;;;;16.30;94.10;;;;;;5111506;28;20018;-67
2022/11/12 05:13:20;;;;;;;;;;;16.10;94.10;;;;;;5114382;28;19985;-69
2022/11/12 05:15:45;;;;;;;;;;;16.00;94.10;;;;;;5113548;28;20425;-68
2022/11/12 05:18:11;;;;;;;;;;;16.40;94.20;;;;;;5095393;28;19924;-68
2022/11/12 05:20:36;;;;;;;;;;;15.90;94.10;;;;;;5096222;28;19928;-70
2022/11/12 05:23:02;;;;;;;;;;;16.10;94.10;;;;;;5095646;28;19931;-66
2022/11/12 05:25:28;;;;;;;;;;;;;;;;;;5112014;28;19924;-70
2022/11/12 05:27:54;;;;;;;;;;;15.90;94.00;;;;;;5112419;28;19924;-68
2022/11/12 05:30:19;;;;;;;;;;;15.90;94.00;;;;;;5100120;28;19920;-69
2022/11/12 05:32:45;;;;;;;;;;;16.20;94.10;;;;;;5099203;28;19924;-67
2022/11/12 05:35:11;;;;;;;;;;;16.00;93.70;;;;;;5095678;28;19924;-69
2022/11/12 05:37:36;;;;;;;;;;;16.00;94.00;;;;;;5111523;28;19936;-68
2022/11/12 05:40:02;;;;;;;;;;;16.10;94.00;;;;;;5113609;28;20043;-72
2022/11/12 05:42:28;;;;;;;;;;;16.10;94.00;;;;;;5118227;28;19928;-69
2022/11/12 05:44:54;;;;;;;;;;;16.30;94.10;;;;;;5117089;28;19968;-67
2022/11/12 05:47:19;;;;;;;;;;;16.20;94.00;;;;;;5117074;28;19931;-68
2022/11/12 05:49:45;;;;;;;;;;;16.10;94.00;;;;;;5118584;28;19924;-67
2022/11/12 05:52:11;;;;;;;;;;;15.90;93.90;;;;;;5116416;28;20332;-66
2022/11/12 05:54:36;;;;;;;;;;;15.90;93.80;;;;;;5116830;28;19969;-66
2022/11/12 05:57:02;;;;;;;;;;;15.90;93.90;;;;;;5112653;28;20045;-66
2022/11/12 05:59:28;;;;;;;;;;;16.00;93.90;;;;;;5115651;28;19924;-66
2022/11/12 06:01:54;;;;;;;;;;;15.90;93.80;;;;;;5116553;28;20026;-66
2022/11/12 06:04:21;;;;;;;;;;;15.90;93.80;;;;;;5118237;28;19945;-66
2022/11/12 06:06:46;;;;;;;;;;;16.20;93.90;;;;;;5115672;28;19930;-66
2022/11/12 06:09:12;;;;;;;;;;;16.00;93.80;;;;;;5116287;28;20030;-69
2022/11/12 06:11:38;;;;;;;;;;;16.00;93.80;;;;;;5117471;28;19923;-67
2022/11/12 06:14:03;;;;;;;;;;;16.00;93.80;;;;;;5118403;28;19927;-67
2022/11/12 06:16:29;;;;;;;;;;;16.00;93.80;;;;;;5117988;28;19924;-66
2022/11/12 06:18:55;;;;;;;;;;;15.90;93.80;;;;;;5115469;28;19928;-67
2022/11/12 06:21:23;;;;;;;;;;;16.10;93.80;;;;;;5116125;28;19923;-67
2022/11/12 06:23:50;;;;;;;;;;;16.10;93.90;;;;;;5116388;28;19924;-67
2022/11/12 06:26:16;;;;;;;;;;;15.80;93.80;;;;;;5098474;28;19924;-68
2022/11/12 06:28:41;;;;;;;;;;;15.90;93.80;;;;;;5116561;28;19930;-68
2022/11/12 06:31:07;;;;;;;;;;;15.90;93.80;;;;;;5115441;28;20372;-68
2022/11/12 06:33:33;;;;;;;;;;;15.90;93.80;;;;;;5117649;28;19924;-67
2022/11/12 06:36:01;;;;;;;;;;;16.20;93.90;;;;;;5116821;28;20292;-67
2022/11/12 06:38:31;;;;;;;;;;;15.90;93.70;;;;;;5115021;28;19932;-67
2022/11/12 06:40:56;;;;;;;;;;;16.00;93.70;;;;;;5099014;28;19969;-67
2022/11/12 06:43:22;;;;;;;;;;;16.00;93.70;;;;;;5099148;28;19927;-67
2022/11/12 06:45:48;;;;;;;;;;;15.80;93.70;;;;;;5094284;28;20349;-66
2022/11/12 06:48:13;;;;;;;;;;;15.80;93.70;;;;;;5106917;28;20380;-66
2022/11/12 06:50:39;;;;;;;;;;;16.20;93.70;;;;;;5116144;28;19919;-67
2022/11/12 06:53:04;;;;;;;;;;;16.00;93.60;;;;;;5114617;28;20349;-67
2022/11/12 06:55:30;;;;;;;;;;;15.80;93.60;;;;;;5117852;28;19924;-66
2022/11/12 06:57:56;;;;;;;;;;;16.20;93.70;;;;;;5115319;28;19924;-67
2022/11/12 07:00:22;;;;;;;;;;;16.00;93.70;;;;;;5116210;28;19924;-68
2022/11/12 07:02:47;;;;;;;;;;;15.90;93.70;;;;;;5117173;28;19930;-68
2022/11/12 07:05:13;;;;;;;;;;;15.80;93.60;;;;;;5114525;28;19967;-67
2022/11/12 07:07:39;;;;;;;;;;;16.00;93.60;;;;;;5115654;28;19931;-67
2022/11/12 07:10:05;;;;;;;;;;;15.80;93.50;;;;;;5117084;28;19923;-67
2022/11/12 07:12:30;;;;;;;;;;;16.00;93.60;;;;;;5116171;28;19924;-67
2022/11/12 07:14:56;;;;;;;;;;;15.80;93.60;;;;;;5114874;28;20007;-67
2022/11/12 07:17:22;;;;;;;;;;;;;;;;;;5114996;28;20024;-71
2022/11/12 07:19:48;;;;;;;;;;;15.80;93.40;;;;;;5114168;28;19924;-67
2022/11/12 07:22:13;;;;;;;;;;;15.80;93.40;;;;;;5117311;28;19931;-67
2022/11/12 07:24:39;;;;;;;;;;;15.90;93.50;;;;;;5115340;28;20301;-66
2022/11/12 07:27:05;;;;;;;;;;;15.70;93.30;;;;;;5114363;28;20367;-66
2022/11/12 07:29:30;;;;;;;;;;;15.80;93.40;;;;;;5114658;28;20284;-66
2022/11/12 07:31:56;;;;;;;;;;;15.90;93.40;;;;;;5116443;28;19931;-67
2022/11/12 07:34:21;;;;;;;;;;;16.00;93.40;;;;;;5115071;28;19969;-66
2022/11/12 07:36:50;;;;;;;;;;;15.70;93.40;;;;;;5116166;28;20364;-66
2022/11/12 07:39:17;;;;;;;;;;;16.00;93.30;;;;;;5114275;27;20376;-65
2022/11/12 07:41:42;;;;;;;;;;;15.80;93.20;;;;;;5114765;28;20019;-67
2022/11/12 07:44:08;;;;;;;;;;;16.20;93.20;;;;;;5097809;28;19924;-69
2022/11/12 07:46:33;;;;;;;;;;;15.80;93.10;;;;;;5115051;28;19966;-69
2022/11/12 07:48:59;;;;;;;;;;;15.90;93.10;;;;;;5113963;28;19931;-65
2022/11/12 07:51:26;;;;;;;;;;;16.20;93.20;;;;;;5115715;28;19946;-65
2022/11/12 07:53:52;;;;;;;;;;;15.90;93.00;;;;;;5116263;28;20010;-70
2022/11/12 07:56:18;;;;;;;;;;;15.90;93.00;;;;;;5114743;28;19928;-66
2022/11/12 07:58:44;;;;;;;;;;;16.20;93.10;;;;;;5114093;28;19924;-71
2022/11/12 08:01:10;;;;;;;;;;;16.00;93.00;;;;;;5115762;28;19930;-68
2022/11/12 08:03:35;;;;;;;;;;;16.20;93.10;;;;;;5115413;28;19923;-68
2022/11/12 08:06:02;;;;;;;;;;;16.20;93.10;;;;;;5096983;28;19930;-69
2022/11/12 08:08:28;;;;;;;;;;;16.10;93.00;;;;;;5115714;28;19935;-65
2022/11/12 08:10:55;;;;;;;;;;;16.30;93.00;;;;;;5114549;28;19919;-65
2022/11/12 08:13:21;;;;;;;;;;;16.00;93.00;;;;;;5094709;28;19924;-64
2022/11/12 08:15:46;;;;;;;;;;;16.10;92.90;;;;;;5108830;28;19946;-66
2022/11/12 08:18:12;;;;;;;;;;;16.30;92.90;;;;;;5114906;28;19925;-66
2022/11/12 08:20:38;;;;;;;;;;;16.30;92.80;;;;;;5112868;28;19930;-66
2022/11/12 08:23:04;;;;;;;;;;;16.20;92.80;;;;;;5113867;28;19924;-66
2022/11/12 08:25:29;;;;;;;;;;;16.30;92.80;;;;;;5114994;28;19923;-66
2022/11/12 08:27:56;;;;;;;;;;;16.30;92.80;;;;;;5113955;28;19931;-70
2022/11/12 08:30:22;;;;;;;;;;;;;;;;;;5114169;28;20301;-67
2022/11/12 08:32:53;;;;;;;;;;;16.10;92.70;;;;;;5113802;28;19923;-66
2022/11/12 08:35:19;;;;;;;;;;;16.10;92.70;;;;;;5115111;28;19928;-66
2022/11/12 08:37:45;;;;;;;;;;;16.20;92.70;;;;;;5115339;28;19924;-68
2022/11/12 08:40:11;;;;;;;;;;;16.20;92.70;;;;;;5114042;28;19931;-66
2022/11/12 08:42:37;;;;;;;;;;;16.10;92.70;;;;;;5096663;28;20404;-66
2022/11/12 08:45:02;;;;;;;;;;;16.20;92.80;;;;;;5115246;28;19947;-68
2022/11/12 08:47:28;;;;;;;;;;;16.30;92.80;;;;;;5114403;28;19928;-65
2022/11/12 08:49:54;;;;;;;;;;;16.20;92.80;;;;;;5115109;28;19938;-68
2022/11/12 08:52:19;;;;;;;;;;;16.30;92.80;;;;;;5111347;28;19977;-68
2022/11/12 08:54:45;;;;;;;;;;;16.10;92.80;;;;;;5113439;28;19953;-70
2022/11/12 08:57:10;;;;;;;;;;;16.10;92.80;;;;;;5114984;28;19931;-71
2022/11/12 08:59:36;;;;;;;;;;;16.10;92.80;;;;;;5113284;28;19927;-68
2022/11/12 09:02:02;;;;;;;;;;;16.30;92.80;;;;;;5112299;28;19924;-68
2022/11/12 09:04:28;;;;;;;;;;;16.20;92.80;;;;;;5113175;28;20068;-68
2022/11/12 09:06:53;;;;;;;;;;;16.20;92.90;;;;;;5114191;28;19923;-74
2022/11/12 09:09:19;;;;;;;;;;;16.30;92.90;;;;;;5113161;28;19942;-75
2022/11/12 09:11:44;;;;;;;;;;;16.50;92.90;;;;;;5113274;28;19923;-71
2022/11/12 09:14:10;;;;;;;;;;;16.10;92.90;;;;;;5112107;28;19975;-72
2022/11/12 09:16:36;;;;;;;;;;;16.50;92.90;;;;;;5106401;28;20386;-71
2022/11/12 09:19:01;;;;;;;;;;;16.30;92.90;;;;;;5113352;28;20479;-77
2022/11/12 09:21:27;;;;;;;;;;;16.40;92.90;;;;;;5114570;28;19924;-71
2022/11/12 09:23:54;;;;;;;;;;;16.20;92.90;;;;;;5112551;28;19923;-74
2022/11/12 09:26:20;;;;;;;;;;;16.30;92.90;;;;;;5112947;28;20428;-67
2022/11/12 09:28:45;;;;;;;;;;;16.40;92.90;;;;;;5114227;28;20046;-67
2022/11/12 09:31:11;;;;;;;;;;;16.20;92.80;;;;;;5114067;28;20021;-70
2022/11/12 09:33:37;;;;;;;;;;;16.40;92.80;;;;;;5110789;28;19935;-70
2022/11/12 09:36:02;;;;;;;;;;;16.50;92.90;;;;;;5112946;28;19930;-70
2022/11/12 09:38:29;;;;;;;;;;;16.50;92.90;;;;;;5112863;28;19928;-68
2022/11/12 09:41:13;;;;;;;;;;;16.30;92.80;;;;;;5095894;28;19924;-69
2022/11/12 09:43:44;;;;;;;;;;;16.50;92.90;;;;;;5094808;28;20019;-72
2022/11/12 09:46:16;;;;;;;;;;;16.60;93.00;;;;;;5095320;28;19937;-74
2022/11/12 09:48:43;;;;;;;;;;;16.70;93.00;;;;;;5108125;28;20289;-70
2022/11/12 09:51:10;;;;;;;;;;;16.60;92.90;;;;;;5093759;28;19927;-66
2022/11/12 09:53:42;;;;;;;;;;;16.30;92.90;;;;;;5113048;28;20289;-65
2022/11/12 09:56:09;;;;;;;;;;;16.60;93.00;;;;;;5112800;28;20460;-68
2022/11/12 09:58:35;;;;;;;;;;;16.50;93.00;;;;;;5113112;28;20300;-69
2022/11/12 10:01:02;;;;;;;;;;;16.50;93.00;;;;;;5113704;28;19924;-69
2022/11/12 10:03:54;;;;;;;;;;;16.60;93.10;;;;;;5112906;28;20407;-67
2022/11/12 10:06:46;;;;;;;;;;;16.50;93.10;;;;;;5097028;28;19930;-68
2022/11/12 10:09:13;;;;;;;;;;;16.50;93.10;;;;;;5097083;28;19924;-71
2022/11/12 10:14:42;;;;;;;;;;;16.80;93.20;;;;;;5113348;28;19924;-67
2022/11/12 10:17:09;;;;;;;;;;;16.70;93.20;;;;;;5112518;28;19930;-68
2022/11/12 10:19:35;;;;;;;;;;;16.50;93.10;;;;;;5113830;28;19924;-66
2022/11/12 10:22:00;;;;;;;;;;;16.40;93.10;;;;;;5112371;28;19924;-68
2022/11/12 10:24:27;;;;;;;;;;;16.40;93.10;;;;;;5129503;28;19927;-66
2022/11/12 10:26:54;;;;;;;;;;;16.50;93.10;;;;;;5114049;28;19923;-69
2022/11/12 10:29:38;;;;;;;;;;;16.60;93.10;;;;;;5116554;28;19982;-70
2022/11/12 10:32:03;;;;;;;;;;;16.60;93.10;;;;;;5099399;28;19946;-70
2022/11/12 10:34:34;;;;;;;;;;;16.60;93.10;;;;;;5116473;28;20002;-69
2022/11/12 10:37:01;;;;;;;;;;;16.70;93.20;;;;;;5117253;28;19985;-66
2022/11/12 10:39:31;;;;;;;;;;;16.70;93.10;;;;;;5117326;28;19928;-65
2022/11/12 10:42:07;;;;;;;;;;;16.50;93.00;;;;;;5116014;28;20022;-69
2022/11/12 10:44:33;;;;;;;;;;;16.50;93.10;;;;;;5117253;28;19977;-70
2022/11/12 10:47:17;;;;;;;;;;;16.70;93.20;;;;;;5117473;28;19927;-66
2022/11/12 10:49:43;;;;;;;;;;;16.60;93.10;;;;;;5118014;28;19947;-66
2022/11/12 10:52:21;;;;;;;;;;;16.60;93.10;;;;;;5112944;28;20369;-71
2022/11/12 10:54:47;;;;;;;;;;;16.50;93.20;;;;;;5096953;28;19928;-67
2022/11/12 10:57:23;;;;;;;;;;;16.40;93.10;;;;;;5103733;28;20297;-69
2022/11/12 11:00:07;;;;;;;;;;;16.60;93.20;;;;;;5098775;28;19923;-67
2022/11/12 11:02:32;;;;;;;;;;;16.50;93.20;;;;;;5115957;28;19956;-70
2022/11/12 11:04:58;;;;;;;;;;;16.60;93.30;;;;;;5099088;28;20382;-70
2022/11/12 11:07:26;;;;;;;;;;;16.40;93.00;;;;;;5115588;28;20288;-67
2022/11/12 11:09:52;;;;;;;;;;;16.60;93.30;;;;;;5115842;28;20071;-70
2022/11/12 11:12:21;;;;;;;;;;;16.40;93.30;;;;;;5116659;28;19923;-66
2022/11/12 11:14:47;;;;;;;;;;;16.40;93.10;;;;;;5107410;28;19986;-66
2022/11/12 11:17:16;;;;;;;;;;;16.60;93.20;;;;;;5083949;28;19966;-68
2022/11/12 11:19:42;;;;;;;;;;;16.40;93.10;;;;;;5092423;28;19924;-72
2022/11/12 11:22:08;;;;;;;;;;;;;;;;;;5107655;28;19976;-71
2022/11/12 11:24:35;;;;;;;;;;;16.50;93.20;;;;;;5115434;28;19924;-67
2022/11/12 11:27:01;;;;;;;;;;;16.50;93.30;;;;;;5115685;28;19924;-68
2022/11/12 11:29:39;;;;;;;;;;;16.20;93.20;;;;;;5114368;28;19999;-66
2022/11/12 11:32:17;;;;;;;;;;;16.50;93.30;;;;;;5097775;28;20377;-70
2022/11/12 11:34:47;;;;;;;;;;;16.30;93.20;;;;;;5114966;28;20010;-66
2022/11/12 11:37:26;;;;;;;;;;;16.50;93.30;;;;;;5113788;28;20377;-67
2022/11/12 11:40:05;;;;;;;;;;;16.40;93.30;;;;;;5097670;28;19923;-68
2022/11/12 11:43:09;;;;;;;;;;;16.60;93.40;;;;;;5110949;28;19985;-65
2022/11/12 11:45:45;;;;;;;;;;;16.20;93.30;;;;;;5070477;28;20012;-67
2022/11/12 11:48:19;;;;;;;;;;;16.40;93.30;;;;;;5055176;28;19925;-67
2022/11/12 11:50:49;;;;;;;;;;;16.30;93.30;;;;;;5090229;28;20447;-66
2022/11/12 11:53:20;;;;;;;;;;;16.20;93.30;;;;;;5073479;28;19967;-69
2022/11/12 11:56:13;;;;;;;;;;;16.40;93.30;;;;;;5040075;28;20031;-65
2022/11/12 11:58:53;;;;;;;;;;;16.60;93.40;;;;;;5017248;28;19984;-68
2022/11/12 12:01:28;;;;;;;;;;;16.30;93.30;;;;;;5056161;28;19931;-66
2022/11/12 12:03:56;;;;;;;;;;;16.60;93.40;;;;;;5056331;28;19924;-71
2022/11/12 12:06:26;;;;;;;;;;;16.50;93.40;;;;;;5056038;28;20018;-66
2022/11/12 12:09:04;;;;;;;;;;;16.40;93.30;;;;;;5072255;28;19938;-66
2022/11/12 12:11:44;;;;;;;;;;;16.50;93.40;;;;;;5056430;28;20301;-65
2022/11/12 12:14:10;;;;;;;;;;;16.60;93.40;;;;;;5056030;28;19924;-71
2022/11/12 12:17:02;;;;;;;;;;;16.70;93.40;;;;;;5074985;28;20023;-70
2022/11/12 12:19:46;;;;;;;;;;;16.80;93.40;;;;;;5106906;27;19935;-72
2022/11/12 12:22:17;;;;;;;;;;;16.60;93.40;;;;;;5110500;28;20407;-72
2022/11/12 12:24:50;;;;;;;;;;;16.80;93.40;;;;;;5093958;28;19974;-66
2022/11/12 12:27:35;;;;;;;;;;;16.60;93.40;;;;;;5093943;28;20305;-66
2022/11/12 12:30:02;;;;;;;;;;;16.90;93.40;;;;;;5110281;27;19947;-66
2022/11/12 12:32:31;;;;;;;;;;;17.00;93.40;;;;;;5076880;28;19928;-66
2022/11/12 12:35:00;;;;;;;;;;;17.10;93.40;;;;;;5093601;28;19979;-66
2022/11/12 12:37:34;;;;;;;;;;;16.50;93.30;;;;;;5082377;28;19924;-66
2022/11/12 12:40:02;;;;;;;;;;;17.00;93.40;;;;;;5107914;28;19923;-65
2022/11/12 12:42:29;;;;;;;;;;;16.80;93.30;;;;;;5112839;28;19927;-67
2022/11/12 12:44:59;;;;;;;;;;;16.90;93.40;;;;;;5114082;28;19923;-70
2022/11/12 12:47:25;;;;;;;;;;;16.80;93.30;;;;;;5113877;28;19923;-75
2022/11/12 12:49:51;;;;;;;;;;;;;;;;;;5095597;28;19924;-77
2022/11/12 12:52:16;;;;;;;;;;;16.90;93.40;;;;;;5130598;27;19970;-68
2022/11/12 12:54:51;;;;;;;;;;;16.90;93.30;;;;;;5112469;28;19955;-66
2022/11/12 12:57:25;;;;;;;;;;;16.90;93.20;;;;;;5111597;28;19931;-66
2022/11/12 13:00:05;;;;;;;;;;;16.90;93.10;;;;;;5095707;28;19924;-66
2022/11/12 13:02:31;;;;;;;;;;;16.60;93.00;;;;;;5095322;28;20389;-66
2022/11/12 13:04:57;;;;;;;;;;;17.10;93.10;;;;;;5095356;28;19930;-66
2022/11/12 13:07:39;;;;;;;;;;;16.90;93.00;;;;;;5112869;28;19967;-65
2022/11/12 13:10:23;;;;;;;;;;;16.90;92.90;;;;;;5110950;28;19924;-65
2022/11/12 13:13:15;;;;;;;;;;;16.80;92.90;;;;;;5112650;28;19924;-66
2022/11/12 13:15:42;;;;;;;;;;;16.70;92.80;;;;;;5099643;28;20556;-66
2022/11/12 13:18:09;;;;;;;;;;;16.80;93.00;;;;;;5112526;28;19928;-65
2022/11/12 13:20:35;;;;;;;;;;;16.60;92.90;;;;;;5094499;28;19931;-66
2022/11/12 13:23:01;;;;;;;;;;;16.90;93.00;;;;;;5095537;28;19931;-67
2022/11/12 13:25:27;;;;;;;;;;;16.60;93.00;;;;;;5111660;28;19923;-66
2022/11/12 13:27:53;;;;;;;;;;;16.60;92.90;;;;;;5111067;28;19920;-69
2022/11/12 13:30:19;;;;;;;;;;;;;;;;;;5110852;28;19932;-67
2022/11/12 13:32:45;;;;;;;;;;;17.00;93.00;;;;;;5110034;28;19947;-67
2022/11/12 13:35:11;;;;;;;;;;;16.90;93.10;;;;;;5109787;28;19924;-68
2022/11/12 13:37:45;;;;;;;;;;;16.60;93.10;;;;;;5113213;28;20338;-67
2022/11/12 13:40:15;;;;;;;;;;;16.70;93.00;;;;;;5113331;28;19924;-68
2022/11/12 13:42:47;;;;;;;;;;;16.90;93.10;;;;;;5110655;28;19978;-67
2022/11/12 13:45:12;;;;;;;;;;;16.70;93.00;;;;;;5112443;28;20274;-70
2022/11/12 13:47:38;;;;;;;;;;;16.60;93.00;;;;;;5095651;28;20064;-69
2022/11/12 13:50:05;;;;;;;;;;;16.40;93.00;;;;;;5110303;28;19924;-66
2022/11/12 13:52:31;;;;;;;;;;;16.20;93.10;;;;;;5095237;28;19928;-68
2022/11/12 13:55:15;;;;;;;;;;;16.60;93.30;;;;;;5095839;28;20304;-69
2022/11/12 13:57:41;;;;;;;;;;;16.30;93.40;;;;;;5095804;28;19924;-66
2022/11/12 14:00:07;;;;;;;;;;;;;;;;;;5096034;28;20018;-71
2022/11/12 14:02:32;;;;;;;;;;;16.20;93.50;;;;;;5115390;28;19923;-67
2022/11/12 14:04:58;;;;;;;;;;;16.40;93.50;;;;;;5116583;28;20385;-69
2022/11/12 14:07:33;;;;;;;;;;;16.60;93.50;;;;;;5099951;28;20015;-68
2022/11/12 14:09:59;;;;;;;;;;;16.40;93.30;;;;;;5118499;28;20277;-69
2022/11/12 14:12:35;;;;;;;;;;;16.30;93.30;;;;;;5118167;28;19923;-68
2022/11/12 14:15:01;;;;;;;;;;;16.50;93.30;;;;;;5107969;28;20314;-65
2022/11/12 14:17:37;;;;;;;;;;;16.60;93.40;;;;;;5114158;28;19935;-65
2022/11/12 14:20:06;;;;;;;;;;;16.20;93.40;;;;;;5099828;28;19923;-70
2022/11/12 14:22:38;;;;;;;;;;;16.40;93.50;;;;;;5116281;28;20342;-69
2022/11/12 14:25:09;;;;;;;;;;;16.60;93.60;;;;;;5099322;28;20010;-70
2022/11/12 14:27:35;;;;;;;;;;;;;;;;;;5085500;28;20327;-71
2022/11/12 14:30:09;;;;;;;;;;;16.50;93.70;;;;;;5101106;28;19924;-66
2022/11/12 14:32:39;;;;;;;;;;;16.50;93.70;;;;;;5099219;28;20393;-66
2022/11/12 14:35:18;;;;;;;;;;;16.60;93.80;;;;;;5116253;28;20408;-66
2022/11/12 14:37:48;;;;;;;;;;;16.70;93.80;;;;;;5114631;28;20014;-70
2022/11/12 14:40:16;;;;;;;;;;;16.60;93.80;;;;;;5099074;28;20035;-69
2022/11/12 14:42:41;;;;;;;;;;;16.60;93.90;;;;;;5099065;28;19930;-65
2022/11/12 14:45:14;;;;;;;;;;;16.70;93.90;;;;;;5115946;28;19924;-66
2022/11/12 14:47:40;;;;;;;;;;;16.50;93.90;;;;;;5122386;27;19930;-68
2022/11/12 14:50:07;;;;;;;;;;;16.50;94.00;;;;;;5116466;28;20308;-68
2022/11/12 14:52:34;;;;;;;;;;;16.50;94.00;;;;;;5098788;28;19931;-65